Time;durP1;ratioP1;P1;durP2;ratioP2;P2;SDS_P1;SDS_P2;PMS_P1;PMS_P2;Temp;Humidity;BMP_temperature;BMP_pressure;BME280_temperature;BME280_humidity;BME280_pressure;Samples;Min_cycle;Max_cycle;Signal;HPM_P1;HPM_P2
2022/06/03 00:02:51;;;;;;;5.18;3.15;;;;;;;15.25;58.80;101865.69;5027889;28;20046;-47
2022/06/03 00:05:45;;;;;;;4.68;3.28;;;;;;;15.23;58.43;101862.38;5023591;28;20049;-48
2022/06/03 00:08:41;;;;;;;6.28;3.30;;;;;;;15.20;58.77;101862.09;5031571;28;20045;-46
2022/06/03 00:12:00;;;;;;;4.70;3.25;;;;;;;15.17;58.77;101857.97;5017768;28;20057;-49
2022/06/03 00:14:55;;;;;;;7.60;3.58;;;;;;;15.19;58.75;101861.28;5027135;28;20045;-49
2022/06/03 00:18:14;;;;;;;7.75;3.40;;;;;;;15.16;58.97;101858.25;5022239;28;20050;-47
2022/06/03 00:21:12;;;;;;;5.85;3.50;;;;;;;15.17;58.60;101857.16;5024499;28;20054;-48
2022/06/03 00:24:24;;;;;;;4.40;3.10;;;;;;;15.16;58.63;101858.25;5022561;28;20069;-48
2022/06/03 00:27:33;;;;;;;6.45;3.53;;;;;;;15.15;58.96;101851.91;5012971;28;20467;-49
2022/06/03 00:30:37;;;;;;;5.40;3.55;;;;;;;15.06;59.47;101861.81;5016794;28;20081;-45
2022/06/03 00:33:43;;;;;;;5.82;3.60;;;;;;;15.02;59.48;101850.53;5036294;28;20056;-48
2022/06/03 00:37:00;;;;;;;4.80;3.45;;;;;;;15.04;59.62;101858.53;5030017;28;20092;-47
2022/06/03 00:40:26;;;;;;;7.22;3.50;;;;;;;15.04;59.41;101850.28;5025085;28;20045;-48
2022/06/03 00:43:23;;;;;;;4.43;3.25;;;;;;;14.98;59.57;101848.63;5023352;28;20381;-47
2022/06/03 00:46:52;;;;;;;6.53;3.05;;;;;;;15.00;59.76;101844.50;5035541;28;20465;-46
2022/06/03 00:49:51;;;;;;;5.50;3.25;;;;;;;15.02;59.84;101845.06;5030872;28;20125;-49
2022/06/03 00:52:51;;;;;;;5.55;3.30;;;;;;;15.00;59.52;101847.25;5032368;28;20057;-47
2022/06/03 00:55:39;;;;;;;5.78;3.28;;;;;;;14.95;59.79;101851.91;5035036;28;20045;-47
2022/06/03 00:58:38;;;;;;;6.15;3.40;;;;;;;14.89;59.84;101846.41;5021845;28;20041;-47
2022/06/03 01:01:30;;;;;;;4.90;3.28;;;;;;;14.90;60.05;101845.31;5034476;28;20049;-49
2022/06/03 01:04:41;;;;;;;5.28;3.35;;;;;;;14.95;59.50;101835.44;5029055;28;20100;-45
2022/06/03 01:07:58;;;;;;;5.97;3.42;;;;;;;14.94;59.72;101840.13;5016300;28;20068;-47
2022/06/03 01:11:10;;;;;;;6.10;3.38;;;;;;;14.96;59.62;101829.69;5022637;28;20416;-47
2022/06/03 01:14:21;;;;;;;7.38;3.28;;;;;;;14.91;59.75;101826.91;5025331;28;20049;-48
2022/06/03 01:17:29;;;;;;;3.78;2.90;;;;;;;14.87;59.97;101826.66;5027805;28;20048;-49
2022/06/03 01:20:28;;;;;;;5.10;3.22;;;;;;;14.87;59.66;101826.66;5019122;28;20124;-46
2022/06/03 01:23:28;;;;;;;5.13;3.17;;;;;;;14.83;59.84;101831.03;5025855;28;20046;-50
2022/06/03 01:26:39;;;;;;;6.85;3.25;;;;;;;14.82;59.56;101832.13;5035022;28;20045;-47
2022/06/03 01:30:04;;;;;;;4.57;3.30;;;;;;;14.82;59.63;101818.41;5022309;28;20696;-50
2022/06/03 01:33:02;;;;;;;5.90;3.08;;;;;;;14.80;59.80;101815.13;5034629;28;20084;-46
2022/06/03 01:36:38;;;;;;;6.00;3.13;;;;;;;14.81;59.76;101819.50;5035542;28;20069;-45
2022/06/03 01:39:52;;;;;;;3.63;3.03;;;;;;;14.82;59.83;101812.94;5020220;28;20051;-46
2022/06/03 01:43:07;;;;;;;4.15;2.85;;;;;;;14.80;59.99;101804.16;5034060;28;20042;-44
2022/06/03 01:46:10;;;;;;;5.28;3.30;;;;;;;14.84;59.75;101810.75;5031371;28;20132;-45
2022/06/03 01:48:59;;;;;;;5.40;3.17;;;;;;;14.81;59.90;101805.78;5023577;28;20488;-48
2022/06/03 01:52:22;;;;;;;7.10;3.20;;;;;;;14.82;59.84;101801.97;5013717;28;20133;-47
2022/06/03 01:55:28;;;;;;;4.45;3.25;;;;;;;14.83;60.00;101802.78;5012067;28;20041;-48
2022/06/03 01:58:30;;;;;;;7.60;3.15;;;;;;;14.80;59.93;101803.34;5026027;28;20397;-48
2022/06/03 02:01:36;;;;;;;3.85;2.97;;;;;;;14.76;60.28;101786.56;5030442;28;20049;-47
2022/06/03 02:04:47;;;;;;;8.95;3.50;;;;;;;14.78;59.92;101792.63;5034713;28;20411;-45
2022/06/03 02:07:49;;;;;;;9.32;3.47;;;;;;;14.68;60.20;101790.69;5012668;28;20053;-45
2022/06/03 02:11:11;;;;;;;4.25;3.35;;;;;;;14.64;60.57;101783.28;5026189;28;20428;-47
2022/06/03 02:14:37;;;;;;;5.43;3.30;;;;;;;14.57;60.83;101793.69;5027152;28;20046;-45
2022/06/03 02:17:41;;;;;;;5.25;3.13;;;;;;;14.57;60.90;101793.69;5023978;28;20053;-47
2022/06/03 02:21:06;;;;;;;5.95;3.45;;;;;;;14.52;60.93;101791.72;5022533;28;20084;-48
2022/06/03 02:23:50;;;;;;;6.07;3.50;;;;;;;14.45;61.31;101794.72;5024094;28;20057;-48
2022/06/03 02:26:50;;;;;;;6.00;3.25;;;;;;;14.53;61.46;101792.53;5023640;28;20050;-48
2022/06/03 02:30:24;;;;;;;6.82;4.13;;;;;;;14.51;61.36;101783.78;5027445;28;20049;-50
2022/06/03 02:33:30;;;;;;;5.63;3.45;;;;;;;14.45;61.65;101782.91;5022444;28;20053;-50
2022/06/03 02:36:18;;;;;;;5.93;3.65;;;;;;;14.46;61.64;101788.16;5017683;28;20038;-49
2022/06/03 02:39:43;;;;;;;8.75;3.80;;;;;;;14.43;61.89;101783.22;5022772;28;20057;-51
2022/06/03 02:43:01;;;;;;;5.68;3.45;;;;;;;14.44;62.04;101784.84;5032765;28;20050;-48
2022/06/03 02:46:20;;;;;;;6.22;3.80;;;;;;;14.43;61.89;101776.88;5023787;28;20038;-49
2022/06/03 02:49:13;;;;;;;7.00;3.92;;;;;;;14.40;62.20;101775.50;5027762;28;20050;-50
2022/06/03 02:52:28;;;;;;;4.32;3.25;;;;;;;14.32;62.46;101773.28;5025269;28;20058;-48
2022/06/03 02:55:39;;;;;;;4.50;3.50;;;;;;;14.33;62.47;101782.34;5023032;28;20524;-50
2022/06/03 02:58:49;;;;;;;6.13;3.60;;;;;;;14.40;62.27;101778.25;5013770;28;20501;-49
2022/06/03 03:01:55;;;;;;;6.20;3.90;;;;;;;14.37;62.39;101778.78;5018548;28;20038;-47
2022/06/03 03:05:05;;;;;;;5.38;3.35;;;;;;;14.35;62.46;101770.00;5032345;28;20066;-47
2022/06/03 03:08:08;;;;;;;6.68;3.50;;;;;;;14.34;62.86;101771.13;5031322;28;20045;-49
2022/06/03 03:11:33;;;;;;;5.68;3.97;;;;;;;14.35;62.46;101778.22;5023132;28;20057;-51
2022/06/03 03:14:28;;;;;;;7.30;4.22;;;;;;;14.27;62.72;101774.09;5019877;28;20057;-48
2022/06/03 03:17:24;;;;;;;8.50;3.80;;;;;;;14.24;62.93;101780.13;5023384;28;20060;-51
2022/06/03 03:20:36;;;;;;;6.20;3.75;;;;;;;14.25;63.06;101778.22;5021689;28;20045;-49
2022/06/03 03:23:26;;;;;;;5.68;3.80;;;;;;;14.28;62.95;101774.91;5033171;28;20029;-50
2022/06/03 03:26:51;;;;;;;7.10;4.07;;;;;;;14.25;62.88;101776.28;5016502;28;20054;-48
2022/06/03 03:29:50;;;;;;;4.93;3.40;;;;;;;14.25;63.16;101778.22;5018793;28;20054;-49
2022/06/03 03:33:06;;;;;;;6.13;3.75;;;;;;;14.32;62.88;101764.25;5030301;28;20045;-52
2022/06/03 03:36:20;;;;;;;7.53;4.20;;;;;;;14.31;62.82;101757.97;5028745;28;20064;-49
2022/06/03 03:39:33;;;;;;;5.68;3.78;;;;;;;14.26;63.21;101757.91;5032533;28;20033;-49
2022/06/03 03:42:45;;;;;;;6.55;3.58;;;;;;;14.25;63.34;101761.75;5031200;28;20053;-51
2022/06/03 03:46:05;;;;;;;7.00;3.72;;;;;;;14.24;63.42;101752.72;5029482;28;20046;-47
2022/06/03 03:49:18;;;;;;;6.72;4.30;;;;;;;14.24;63.43;101754.66;5025603;28;20052;-49
2022/06/03 03:52:16;;;;;;;5.20;3.75;;;;;;;14.16;63.64;101749.66;5030710;28;20404;-47
2022/06/03 03:55:48;;;;;;;6.32;4.03;;;;;;;14.09;64.04;101754.56;5024957;28;20132;-45
2022/06/03 03:58:49;;;;;;;6.32;3.83;;;;;;;14.01;64.23;101762.22;5024115;28;20046;-46
2022/06/03 04:01:45;;;;;;;6.68;4.30;;;;;;;14.02;64.52;101750.19;5018105;28;20041;-49
2022/06/03 04:04:47;;;;;;;8.23;4.03;;;;;;;13.95;64.46;101749.63;5031705;28;20045;-50
2022/06/03 04:08:03;;;;;;;7.70;4.20;;;;;;;13.91;64.82;101762.19;5021190;28;20100;-50
2022/06/03 04:11:09;;;;;;;6.55;4.20;;;;;;;13.85;65.02;101752.28;5016493;28;20062;-49
2022/06/03 04:14:18;;;;;;;6.43;4.32;;;;;;;13.81;65.26;101753.94;5027168;28;20053;-49
2022/06/03 04:17:08;;;;;;;7.15;4.47;;;;;;;13.78;65.85;101748.97;5021477;28;20049;-48
2022/06/03 04:20:08;;;;;;;6.20;4.18;;;;;;;13.79;65.66;101739.69;5030735;28;20053;-48
2022/06/03 04:23:14;;;;;;;9.05;4.40;;;;;;;13.80;66.03;101744.06;5032598;28;20053;-48
2022/06/03 04:26:14;;;;;;;5.97;4.20;;;;;;;13.84;65.83;101750.66;5020383;28;20049;-48
2022/06/03 04:29:07;;;;;;;8.65;4.53;;;;;;;13.92;65.72;101736.44;5020929;28;20052;-47
2022/06/03 04:32:04;;;;;;;7.38;4.65;;;;;;;13.92;65.77;101738.34;5030214;28;20052;-49
2022/06/03 04:35:00;;;;;;;5.28;4.05;;;;;;;13.86;66.01;101743.00;5032094;28;20056;-48
2022/06/03 04:38:24;;;;;;;6.68;4.75;;;;;;;13.87;65.84;101736.41;5032369;28;20132;-47
2022/06/03 04:41:40;;;;;;;6.38;4.65;;;;;;;13.87;66.12;101728.19;5029666;28;20125;-47
2022/06/03 04:44:46;;;;;;;8.98;4.68;;;;;;;13.86;66.28;101729.28;5023461;28;20045;-50
2022/06/03 04:47:58;;;;;;;9.32;4.63;;;;;;;13.85;66.57;101733.13;5030456;28;20484;-54
2022/06/03 04:51:13;;;;;;;7.65;4.80;;;;;;;13.82;66.60;101736.41;5019128;28;20046;-48
2022/06/03 04:54:37;;;;;;;8.15;4.80;;;;;;;13.86;66.77;101737.50;5031895;28;20060;-47
2022/06/03 04:58:02;;;;;;;7.20;4.30;;;;;;;13.85;66.81;101744.06;5030793;28;20045;-51
2022/06/03 05:01:28;;;;;;;8.93;4.93;;;;;;;13.81;67.03;101751.19;5027307;28;20053;-52
2022/06/03 05:04:50;;;;;;;8.80;4.70;;;;;;;13.75;67.16;101750.31;5019121;28;20048;-48
2022/06/03 05:07:24;;;;;;;7.03;4.60;;;;;;;13.81;67.13;101749.28;5030253;28;20064;-51
2022/06/03 05:10:33;;;;;;;7.82;4.90;;;;;;;13.79;67.49;101750.63;5020196;28;20065;-49
2022/06/03 05:14:05;;;;;;;7.65;4.50;;;;;;;13.89;67.20;101747.94;5026106;28;20057;-49
2022/06/03 05:17:14;;;;;;;9.55;5.13;;;;;;;13.97;67.10;101744.66;5017570;28;20049;-48
2022/06/03 05:20:52;;;;;;;8.10;5.25;;;;;;;14.00;67.16;101752.38;5026577;28;20061;-50
2022/06/03 05:24:14;;;;;;;7.47;5.10;;;;;;;13.96;67.38;101750.44;5026651;28;20052;-49
2022/06/03 05:27:12;;;;;;;9.00;5.03;;;;;;;13.97;67.18;101747.41;5013742;28;20573;-50
2022/06/03 05:30:23;;;;;;;7.70;4.78;;;;;;;14.00;67.33;101752.38;5024514;28;20053;-50
2022/06/03 05:33:52;;;;;;;13.55;5.53;;;;;;;14.09;67.37;101749.09;5015885;28;20149;-49
2022/06/03 05:37:04;;;;;;;11.88;5.10;;;;;;;14.11;67.11;101746.91;5020788;28;20051;-48
2022/06/03 05:40:34;;;;;;;8.82;4.78;;;;;;;14.13;67.12;101750.22;5025688;28;20045;-50
2022/06/03 05:43:48;;;;;;;6.28;4.00;;;;;;;14.13;67.06;101744.72;5027601;28;20054;-51
2022/06/03 05:46:45;;;;;;;8.43;5.15;;;;;;;14.06;67.28;101742.25;5016996;28;20057;-49
2022/06/03 05:49:59;;;;;;;9.23;4.57;;;;;;;14.14;66.61;101741.75;5017548;28;20041;-50
2022/06/03 05:53:08;;;;;;;6.57;4.47;;;;;;;14.19;66.61;101743.63;5028173;28;20057;-51
2022/06/03 05:56:33;;;;;;;8.20;4.68;;;;;;;14.24;66.37;101741.75;5032985;28;20052;-49
2022/06/03 05:59:21;;;;;;;;;;;;;;;14.31;66.49;101726.94;5022084;28;20053;-48
2022/06/03 06:02:13;;;;;;;7.40;4.78;;;;;;;14.36;66.40;101738.78;5017724;28;20365;-53
2022/06/03 06:05:10;;;;;;;7.00;4.72;;;;;;;14.38;66.51;101731.09;4324295;28;9999950;-47
2022/06/03 06:08:12;;;;;;;8.93;5.78;;;;;;;14.37;66.58;101734.94;5015113;28;20111;-47
2022/06/03 06:11:20;;;;;;;9.02;5.72;;;;;;;14.38;66.86;101736.59;5024187;28;20073;-50
2022/06/03 06:14:37;;;;;;;8.57;4.97;;;;;;;14.42;66.63;101745.91;5025756;28;20057;-48
2022/06/03 06:17:43;;;;;;;8.15;5.00;;;;;;;14.47;66.70;101739.59;5013791;28;20061;-51
2022/06/03 06:20:58;;;;;;;13.15;5.50;;;;;;;14.55;66.51;101744.59;5017155;28;20077;-52
2022/06/03 06:23:52;;;;;;;9.15;5.50;;;;;;;14.60;66.33;101733.63;5019413;28;20053;-50
2022/06/03 06:27:02;;;;;;;7.32;4.80;;;;;;;14.61;66.08;101742.69;5017267;28;20045;-51
2022/06/03 06:30:14;;;;;;;6.95;4.40;;;;;;;14.63;65.63;101735.81;5027058;28;20057;-52
2022/06/03 06:33:20;;;;;;;8.02;5.03;;;;;;;14.66;65.95;101748.97;5016081;28;20064;-48
2022/06/03 06:36:32;;;;;;;7.40;4.95;;;;;;;14.70;65.93;101738.31;5030869;28;20049;-49
2022/06/03 06:39:14;;;;;;;9.52;5.53;;;;;;;14.70;65.49;101738.31;5020490;28;20080;-52
2022/06/03 06:42:21;;;;;;;12.23;4.90;;;;;;;14.72;65.77;101740.75;5011365;28;20053;-49
2022/06/03 06:45:28;;;;;;;10.95;4.78;;;;;;;14.74;65.58;101736.63;5021340;28;21762;-51
2022/06/03 06:48:45;;;;;;;8.43;4.97;;;;;;;14.80;65.67;101738.31;5023286;28;20107;-51
2022/06/03 06:52:07;;;;;;;6.88;4.50;;;;;;;14.87;65.73;101738.84;5027909;28;20073;-51
2022/06/03 06:55:28;;;;;;;6.60;4.60;;;;;;;14.93;65.38;101736.91;5024077;28;20057;-51
2022/06/03 06:58:43;;;;;;;7.75;4.43;;;;;;;14.99;65.43;101737.75;5019949;28;20041;-52
2022/06/03 07:01:45;;;;;;;7.22;5.00;;;;;;;15.03;65.35;101731.44;5021248;28;20053;-50
2022/06/03 07:04:41;;;;;;;8.93;5.05;;;;;;;15.07;65.79;101737.19;5016740;28;20484;-51
2022/06/03 07:07:26;;;;;;;7.43;5.03;;;;;;;15.10;65.72;101737.47;5006017;28;20046;-50
2022/06/03 07:10:26;;;;;;;11.57;5.10;;;;;;;15.17;65.65;101736.34;5020421;28;20045;-54
2022/06/03 07:13:27;;;;;;;6.75;4.30;;;;;;;15.23;64.65;101735.25;5032131;28;20496;-51
2022/06/03 07:20:05;;;;;;;6.68;4.60;;;;;;;15.32;64.27;101741.81;5018907;28;20052;-50
2022/06/03 07:23:04;;;;;;;10.73;5.13;;;;;;;15.42;65.46;101733.56;5033373;28;20049;-51
2022/06/03 07:26:09;;;;;;;8.38;5.55;;;;;;;15.50;65.33;101734.94;5021596;28;20072;-53
2022/06/03 07:29:26;;;;;;;9.20;5.47;;;;;;;15.61;64.59;101725.56;5017248;28;20056;-50
2022/06/03 07:32:28;;;;;;;8.45;4.57;;;;;;;15.67;64.71;101727.16;5019400;28;20049;-54
2022/06/03 07:35:22;;;;;;;7.28;5.30;;;;;;;15.69;64.00;101729.66;5017578;28;20041;-50
2022/06/03 07:38:24;;;;;;;9.43;4.88;;;;;;;15.72;63.67;101723.63;5032959;28;20046;-50
2022/06/03 07:41:39;;;;;;;9.05;5.20;;;;;;;15.80;63.46;101720.28;5024246;28;20046;-49
2022/06/03 07:44:55;;;;;;;14.85;5.57;;;;;;;15.86;63.07;101721.91;5023734;28;20049;-49
2022/06/03 07:47:34;;;;;;;10.35;5.32;;;;;;;15.87;63.03;101718.03;5012272;28;20515;-51
2022/06/03 07:50:23;;;;;;;8.32;5.15;;;;;;;15.89;62.94;101715.84;5022305;28;20500;-50
2022/06/03 07:53:37;;;;;;;9.18;5.55;;;;;;;15.98;62.43;101716.91;5027073;28;20049;-50
2022/06/03 07:56:05;;;;;;;8.15;4.55;;;;;;;16.02;62.44;101719.94;5024671;28;20042;-49
2022/06/03 07:58:58;;;;;;;10.63;5.55;;;;;;;16.09;62.69;101719.59;5030265;28;20045;-50
2022/06/03 08:02:01;;;;;;;11.82;4.95;;;;;;;16.19;62.44;101703.06;5022342;28;20461;-54
2022/06/03 08:05:19;;;;;;;12.95;5.40;;;;;;;16.25;62.58;101715.66;5023344;28;20052;-52
2022/06/03 08:11:24;;;;;;;;;;;;;;;16.36;63.89;101710.94;5022468;28;20064;-49
2022/06/03 08:14:12;;;;;;;10.90;5.40;;;;;;;16.46;63.39;101716.34;5023068;28;19928;-48
2022/06/03 08:17:08;;;;;;;8.80;5.30;;;;;;;16.55;63.34;101709.13;5021391;28;20045;-50
2022/06/03 08:19:56;;;;;;;9.10;5.18;;;;;;;16.61;62.26;101694.22;5030627;28;20484;-52
2022/06/03 08:22:45;;;;;;;9.35;5.40;;;;;;;16.64;62.17;101695.56;5023046;28;20041;-50
2022/06/03 08:25:39;;;;;;;15.45;6.30;;;;;;;16.64;63.36;101686.50;5019693;28;20045;-49
2022/06/03 08:28:31;;;;;;;10.45;5.13;;;;;;;16.72;60.90;101683.16;5015710;28;20046;-51
2022/06/03 08:31:21;;;;;;;10.68;5.07;;;;;;;16.76;60.73;101685.03;5019477;28;20053;-51
2022/06/03 08:34:20;;;;;;;8.05;4.72;;;;;;;16.79;61.70;101675.41;5018235;28;20057;-51
2022/06/03 08:37:09;;;;;;;9.48;5.18;;;;;;;16.92;60.44;101673.91;5025830;28;20041;-51
2022/06/03 08:39:58;;;;;;;7.63;4.90;;;;;;;17.02;60.27;101680.13;5025319;28;20044;-51
2022/06/03 08:42:51;;;;;;;17.73;6.38;;;;;;;17.12;59.62;101681.13;5025589;28;20050;-47
2022/06/03 08:45:45;;;;;;;9.77;5.28;;;;;;;17.10;58.85;101675.09;5012281;28;20042;-49
2022/06/03 08:48:39;;;;;;;6.85;4.35;;;;;;;17.14;59.41;101684.41;5025861;28;20053;-50
2022/06/03 08:51:50;;;;;;;13.45;5.47;;;;;;;17.25;59.45;101681.28;5017469;28;20077;-50
2022/06/03 08:54:39;;;;;;;9.95;4.47;;;;;;;17.25;59.15;101681.28;5031977;28;20052;-50
2022/06/03 08:57:41;;;;;;;12.43;5.30;;;;;;;17.29;60.49;101678.75;5012925;28;20147;-49
2022/06/03 09:00:40;;;;;;;10.65;4.70;;;;;;;17.39;60.18;101678.66;5017790;28;20038;-49
2022/06/03 09:03:30;;;;;;;10.80;4.63;;;;;;;17.61;57.44;101689.13;5022766;28;20104;-50
2022/06/03 09:06:43;;;;;;;9.73;5.07;;;;;;;17.62;57.03;101682.50;5020832;28;20049;-51
2022/06/03 09:09:45;;;;;;;11.30;5.13;;;;;;;17.73;56.06;101677.69;5035143;28;20061;-50
2022/06/03 09:12:36;;;;;;;7.50;4.43;;;;;;;17.74;56.09;101682.06;5029006;28;20060;-51
2022/06/03 09:15:26;;;;;;;8.65;4.43;;;;;;;17.82;54.13;101678.69;5019911;28;20052;-50
2022/06/03 09:18:29;;;;;;;11.73;5.22;;;;;;;17.80;55.46;101683.69;5033594;28;20045;-50
2022/06/03 09:21:25;;;;;;;17.75;5.35;;;;;;;17.85;55.80;101678.09;5031660;28;20053;-48
2022/06/03 09:24:40;;;;;;;9.55;4.57;;;;;;;17.96;54.79;101677.97;5027842;28;20045;-49
2022/06/03 09:27:16;;;;;;;11.30;4.47;;;;;;;17.99;53.86;101677.34;5017466;28;20228;-49
2022/06/03 09:30:06;;;;;;;5.55;3.83;;;;;;;18.21;54.04;101669.31;5013539;28;20042;-50
2022/06/03 09:32:55;;;;;;;10.07;4.07;;;;;;;18.21;54.26;101665.75;5027434;28;20046;-51
2022/06/03 09:35:46;;;;;;;6.60;3.50;;;;;;;18.20;52.76;101677.88;5033809;28;20085;-49
2022/06/03 09:38:47;;;;;;;7.72;3.42;;;;;;;18.30;52.31;101678.56;5032167;28;20048;-51
2022/06/03 09:41:41;;;;;;;5.32;3.13;;;;;;;18.44;51.97;101662.03;5024292;28;20045;-49
2022/06/03 09:44:29;;;;;;;8.57;3.92;;;;;;;18.58;51.11;101664.88;5017731;28;20062;-50
2022/06/03 09:47:19;;;;;;;7.22;3.60;;;;;;;18.55;51.06;101662.72;5021526;28;20049;-50
2022/06/03 09:50:07;;;;;;;16.33;4.28;;;;;;;18.52;50.60;101657.81;5021415;28;20493;-50
2022/06/03 09:53:07;;;;;;;19.95;4.50;;;;;;;18.51;51.08;101661.66;5024544;28;20096;-52
2022/06/03 09:56:01;;;;;;;9.85;4.07;;;;;;;18.48;51.27;101652.06;5022865;28;20057;-52
2022/06/03 09:58:52;;;;;;;10.45;4.43;;;;;;;18.52;52.06;101655.06;5019302;28;20510;-50
2022/06/03 10:01:40;;;;;;;9.98;3.45;;;;;;;18.63;50.65;101656.50;5019718;28;20052;-47
2022/06/03 10:04:28;;;;;;;7.28;3.47;;;;;;;18.72;50.70;101657.44;5031656;28;20050;-54
2022/06/03 10:07:00;;;;;;;9.90;3.85;;;;;;;18.73;50.54;101661.84;5019404;28;20068;-49
2022/06/03 10:13:03;;;;;;;6.70;3.20;;;;;;;19.07;48.88;101643.31;5029377;28;20042;-50
2022/06/03 10:15:59;;;;;;;4.60;2.80;;;;;;;19.22;48.33;101640.28;5007477;28;20038;-47
2022/06/03 10:18:49;;;;;;;5.80;3.10;;;;;;;19.18;48.34;101647.53;5023212;28;20052;-46
2022/06/03 10:21:17;;;;;;;6.57;2.75;;;;;;;19.32;46.76;101647.53;5022416;28;20045;-48
2022/06/03 10:24:06;;;;;;;7.00;2.88;;;;;;;19.37;47.78;101628.09;5033557;28;20052;-48
2022/06/03 10:26:49;;;;;;;7.13;2.80;;;;;;;19.38;48.19;101640.78;5023758;28;20045;-49
2022/06/03 10:29:47;;;;;;;7.95;3.10;;;;;;;19.38;47.95;101638.00;5025654;28;20080;-51
2022/06/03 10:32:36;;;;;;;5.60;2.97;;;;;;;19.43;47.93;101634.31;5010242;28;20041;-52
2022/06/03 10:35:28;;;;;;;8.13;3.88;;;;;;;19.54;47.45;101631.03;5014881;28;20041;-54
2022/06/03 10:38:18;;;;;;;8.25;3.30;;;;;;;19.54;47.57;101616.41;5021371;28;20042;-47
2022/06/03 10:41:11;;;;;;;11.48;3.47;;;;;;;19.50;47.19;101616.19;5023021;28;20073;-50
2022/06/03 10:43:59;;;;;;;6.20;2.90;;;;;;;19.50;47.58;101613.44;5024285;28;20046;-54
2022/06/03 10:47:06;;;;;;;16.02;7.80;;;;;;;19.55;46.47;101616.09;5023172;28;20045;-54
2022/06/03 10:49:59;;;;;;;6.78;3.17;;;;;;;19.61;46.71;101610.47;5023533;28;20058;-50
2022/06/03 11:02:38;;;;;;;9.40;3.28;;;;;;;19.88;46.11;101609.59;5023199;28;20491;-50
2022/06/03 11:05:31;;;;;;;18.05;8.40;;;;;;;19.85;45.33;101610.22;5018197;28;20392;-50
2022/06/03 11:08:19;;;;;;;17.50;7.70;;;;;;;19.79;43.74;101606.75;5023575;28;20080;-53
2022/06/03 11:11:06;;;;;;;6.28;2.95;;;;;;;19.77;42.01;101604.31;5018813;28;20381;-49
2022/06/03 11:13:54;;;;;;;11.95;5.18;;;;;;;19.85;42.00;101604.69;5019186;28;20041;-54
2022/06/03 11:16:42;;;;;;;31.92;16.65;;;;;;;19.87;43.24;101603.25;5020223;28;20489;-55
2022/06/03 11:19:36;;;;;;;8.63;4.35;;;;;;;19.83;41.29;101601.44;5024469;28;20128;-49
2022/06/03 11:22:29;;;;;;;9.82;4.80;;;;;;;19.98;41.71;101607.41;5020283;28;20045;-50
2022/06/03 11:25:26;;;;;;;10.70;5.20;;;;;;;19.97;41.99;101594.72;5017775;28;20046;-50
2022/06/03 11:28:22;;;;;;;6.70;3.53;;;;;;;19.93;41.88;101604.75;5000071;28;20042;-51
2022/06/03 11:31:31;;;;;;;5.85;2.20;;;;;;;19.98;41.52;101595.53;5017258;28;20113;-54
2022/06/03 11:34:30;;;;;;;5.72;2.20;;;;;;;20.11;42.09;101591.09;5017502;28;20038;-52
2022/06/03 11:37:27;;;;;;;9.43;3.95;;;;;;;20.36;40.87;101587.66;5020719;28;20042;-50
2022/06/03 11:40:44;;;;;;;4.38;2.28;;;;;;;20.51;40.25;101583.69;5010235;28;20046;-48
2022/06/03 11:44:03;;;;;;;4.53;2.28;;;;;;;20.63;40.85;101580.38;5012867;28;20042;-52
2022/06/03 11:46:51;;;;;;;6.45;2.42;;;;;;;20.60;40.55;101578.25;5023150;28;20045;-50
2022/06/03 11:49:39;;;;;;;7.72;3.72;;;;;;;20.54;41.08;101568.38;5012187;28;20041;-52
2022/06/03 11:52:27;;;;;;;8.02;3.75;;;;;;;20.54;40.84;101563.69;5012387;28;20132;-51
2022/06/03 11:55:16;;;;;;;2.13;1.90;;;;;;;20.63;36.71;101572.06;5012944;28;20038;-52
2022/06/03 11:58:09;;;;;;;2.83;2.20;;;;;;;20.67;37.70;101570.28;5012664;28;20519;-50
2022/06/03 12:01:17;;;;;;;8.65;4.07;;;;;;;20.66;39.22;101557.59;4997364;28;20046;-50
2022/06/03 12:04:36;;;;;;;6.68;3.33;;;;;;;20.76;37.79;101573.94;5023540;28;20046;-49
2022/06/03 12:07:33;;;;;;;4.43;2.65;;;;;;;20.67;39.01;101573.06;4993478;28;20054;-49
2022/06/03 12:10:44;;;;;;;4.15;2.60;;;;;;;20.58;39.72;101575.78;5021743;28;20432;-50
2022/06/03 12:13:33;;;;;;;14.75;7.15;;;;;;;20.55;41.96;101578.34;5032519;28;20045;-53
2022/06/03 12:16:21;;;;;;;7.68;3.25;;;;;;;20.66;40.44;101582.53;5032514;28;20045;-50
2022/06/03 12:19:09;;;;;;;8.65;3.55;;;;;;;20.77;38.79;101578.31;5023013;28;20092;-53
2022/06/03 12:22:14;;;;;;;4.68;2.60;;;;;;;20.88;38.58;101578.88;5020045;28;20048;-53
2022/06/03 12:25:04;;;;;;;9.23;3.75;;;;;;;20.95;39.08;101564.53;5032321;28;20443;-53
2022/06/03 12:27:54;;;;;;;5.78;2.47;;;;;;;20.95;38.91;101570.91;5024499;28;20045;-53
2022/06/03 12:30:50;;;;;;;7.15;2.30;;;;;;;21.16;37.88;101565.56;5027498;28;20050;-51
2022/06/03 12:33:54;;;;;;;;;;;;;;;21.19;38.11;101555.81;5027786;28;20072;-47
2022/06/03 12:36:47;;;;;;;6.50;3.13;;;;;;;21.12;36.67;101553.53;5027538;28;19922;-51
2022/06/03 12:39:56;;;;;;;7.60;2.95;;;;;;;21.16;37.03;101550.91;5025211;28;20087;-52
2022/06/03 12:42:45;;;;;;;10.77;4.55;;;;;;;21.07;37.67;101559.22;5029794;28;20048;-53
2022/06/03 12:45:29;;;;;;;5.82;3.10;;;;;;;20.97;38.00;101551.19;5025571;28;20128;-50
2022/06/03 12:48:47;;;;;;;4.40;2.30;;;;;;;20.95;37.45;101553.44;5025925;28;20057;-49
2022/06/03 12:51:55;;;;;;;4.38;1.73;;;;;;;20.92;37.05;101543.03;5032764;28;20084;-52
2022/06/03 12:54:49;;;;;;;3.58;2.47;;;;;;;21.00;36.88;101547.78;5025397;28;20053;-52
2022/06/03 12:58:00;;;;;;;6.72;2.92;;;;;;;21.08;37.25;101551.72;5017516;28;20053;-48
2022/06/03 13:00:54;;;;;;;9.60;2.55;;;;;;;21.24;36.85;101552.91;5015163;28;20528;-50
2022/06/03 13:03:43;;;;;;;7.55;2.10;;;;;;;21.41;36.29;101550.19;5031980;28;20049;-49
2022/06/03 13:06:30;;;;;;;2.05;1.92;;;;;;;21.48;36.52;101544.19;5031240;28;20511;-51
2022/06/03 13:09:47;;;;;;;5.22;2.28;;;;;;;21.53;36.42;101535.69;5022381;28;20382;-48
2022/06/03 13:12:40;;;;;;;15.50;7.70;;;;;;;21.42;37.20;101531.59;5032309;28;20037;-50
2022/06/03 13:15:27;;;;;;;5.43;3.03;;;;;;;21.36;36.70;101535.63;5027675;28;20042;-50
2022/06/03 13:18:34;;;;;;;9.23;3.90;;;;;;;21.31;38.64;101535.78;5030901;28;20111;-51
2022/06/03 13:21:26;;;;;;;11.43;4.80;;;;;;;21.36;38.56;101535.63;5030654;28;20042;-49
2022/06/03 13:24:25;;;;;;;6.60;3.00;;;;;;;21.65;37.96;101541.41;5031976;28;20056;-51
2022/06/03 13:27:23;;;;;;;6.20;2.92;;;;;;;21.69;37.58;101539.63;5031869;28;20052;-49
2022/06/03 13:30:14;;;;;;;6.68;2.83;;;;;;;21.75;37.16;101533.91;5032249;28;20038;-51
2022/06/03 13:33:17;;;;;;;9.23;3.90;;;;;;;21.79;37.04;101529.31;5030643;28;20050;-48
2022/06/03 13:36:10;;;;;;;8.13;2.95;;;;;;;21.75;36.73;101536.69;5023470;28;20454;-49
2022/06/03 13:38:59;;;;;;;4.82;2.50;;;;;;;21.73;36.21;101522.31;5033036;28;20046;-49
2022/06/03 13:44:53;;;;;;;6.72;2.80;;;;;;;21.81;33.97;101524.25;5034244;28;20045;-49
2022/06/03 13:47:42;;;;;;;3.55;2.08;;;;;;;21.89;34.37;101537.34;5033465;28;20427;-53
2022/06/03 13:50:31;;;;;;;3.20;2.22;;;;;;;21.81;34.81;101529.81;5019669;28;20047;-47
2022/06/03 13:53:30;;;;;;;3.67;2.05;;;;;;;21.79;36.31;101532.94;5031543;28;20038;-49
2022/06/03 13:56:22;;;;;;;6.28;2.33;;;;;;;21.89;35.56;101531.78;5028420;28;20049;-49
2022/06/03 13:59:15;;;;;;;9.15;2.88;;;;;;;21.90;36.35;101528.66;5029348;28;20053;-53
2022/06/03 14:02:20;;;;;;;7.97;3.42;;;;;;;21.85;36.68;101534.38;5019327;28;20046;-50
2022/06/03 14:05:16;;;;;;;5.32;2.85;;;;;;;21.84;37.90;101523.59;5024007;28;20045;-51
2022/06/03 14:08:19;;;;;;;6.70;3.03;;;;;;;21.93;37.77;101532.72;5019280;28;20049;-51
2022/06/03 14:11:18;;;;;;;4.25;2.40;;;;;;;21.94;38.00;101533.56;5034489;28;20049;-50
2022/06/03 14:14:20;;;;;;;5.05;2.40;;;;;;;22.01;38.63;101523.59;5011087;28;20057;-52
2022/06/03 14:17:11;;;;;;;5.38;2.60;;;;;;;22.12;38.01;101524.88;5023726;28;20419;-51
2022/06/03 14:20:13;;;;;;;4.07;2.30;;;;;;;22.08;38.03;101523.91;5034890;28;20049;-50
2022/06/03 14:23:19;;;;;;;6.95;2.97;;;;;;;22.07;38.33;101522.28;5032698;28;20049;-53
2022/06/03 14:26:14;;;;;;;3.65;2.20;;;;;;;22.09;38.38;101522.75;5023107;28;20046;-50
2022/06/03 14:29:10;;;;;;;5.73;2.40;;;;;;;22.11;38.14;101526.03;5024157;28;20597;-52